createdAt,value
2022-11-05T00:00:05.996Z,8.87
2022-11-05T00:01:06.012Z,8.76
2022-11-05T00:02:06.035Z,8.84
2022-11-05T00:03:05.936Z,8.91
2022-11-05T00:04:05.995Z,8.89
2022-11-05T00:05:05.904Z,8.95
2022-11-05T00:06:05.940Z,8.88
2022-11-05T00:07:05.901Z,8.71
2022-11-05T00:08:05.857Z,8.84
2022-11-05T00:09:05.844Z,8.76
2022-11-05T00:10:05.816Z,8.70
2022-11-05T00:11:05.827Z,8.66
2022-11-05T00:12:05.823Z,8.66
2022-11-05T00:13:05.764Z,8.67
2022-11-05T00:14:05.754Z,8.73
2022-11-05T00:15:05.754Z,8.69
2022-11-05T00:16:05.720Z,8.70
2022-11-05T00:17:05.743Z,8.64
2022-11-05T00:18:05.685Z,8.67
2022-11-05T00:19:05.665Z,8.66
2022-11-05T00:20:05.649Z,8.67
2022-11-05T00:21:05.627Z,8.64
2022-11-05T00:22:05.647Z,8.66
2022-11-05T00:23:05.598Z,8.61
2022-11-05T00:24:05.584Z,8.70
2022-11-05T00:25:05.561Z,8.67
2022-11-05T00:26:05.544Z,8.70
2022-11-05T00:27:05.567Z,8.60
2022-11-05T00:28:05.520Z,8.56
2022-11-05T00:29:05.494Z,8.48
2022-11-05T00:30:05.480Z,8.58
2022-11-05T00:31:05.451Z,8.56
2022-11-05T00:32:05.471Z,8.51
2022-11-05T00:33:05.427Z,8.56
2022-11-05T00:34:05.400Z,8.64
2022-11-05T00:35:05.390Z,8.55
2022-11-05T00:36:05.368Z,8.58
2022-11-05T00:37:05.373Z,8.69
2022-11-05T00:38:05.340Z,8.64
2022-11-05T00:39:05.317Z,8.61
2022-11-05T00:40:05.303Z,8.67
2022-11-05T00:41:05.281Z,8.58
2022-11-05T00:42:05.291Z,8.63
2022-11-05T00:43:05.258Z,8.69
2022-11-05T00:44:05.230Z,8.64
2022-11-05T00:45:05.214Z,8.67
2022-11-05T00:46:05.196Z,8.58
2022-11-05T00:47:05.207Z,8.63
2022-11-05T00:48:05.167Z,8.64
2022-11-05T00:49:05.147Z,8.64
2022-11-05T00:50:05.137Z,8.64
2022-11-05T00:51:05.124Z,8.67
2022-11-05T00:52:05.126Z,8.63
2022-11-05T00:53:05.072Z,8.69
2022-11-05T00:54:05.059Z,8.61
2022-11-05T00:55:05.047Z,8.74
2022-11-05T00:56:05.024Z,8.74
2022-11-05T00:57:05.032Z,8.67
2022-11-05T00:58:04.995Z,8.79
2022-11-05T00:59:04.971Z,8.66
2022-11-05T01:00:04.950Z,8.76
2022-11-05T01:01:04.940Z,8.70
2022-11-05T01:02:05.109Z,8.74
2022-11-05T01:03:04.904Z,8.64
2022-11-05T01:04:04.888Z,8.71
2022-11-05T01:05:04.866Z,8.73
2022-11-05T01:06:04.847Z,8.53
2022-11-05T01:07:04.856Z,8.61
2022-11-05T01:08:04.814Z,8.53
2022-11-05T01:09:04.796Z,8.58
2022-11-05T01:10:04.778Z,8.51
2022-11-05T01:11:04.760Z,8.60
2022-11-05T01:12:04.771Z,8.49
2022-11-05T01:13:07.594Z,8.55
2022-11-05T01:14:06.717Z,8.58
2022-11-05T01:15:04.691Z,8.46
2022-11-05T01:16:04.686Z,8.52
2022-11-05T01:17:04.690Z,8.55
2022-11-05T01:18:04.640Z,8.60
2022-11-05T01:19:04.640Z,8.69
2022-11-05T01:20:04.610Z,8.49
2022-11-05T01:21:04.603Z,8.61
2022-11-05T01:22:04.603Z,8.55
2022-11-05T01:23:07.598Z,8.61
2022-11-05T01:24:04.543Z,8.63
2022-11-05T01:25:04.530Z,8.64
2022-11-05T01:26:04.527Z,8.71
2022-11-05T01:27:04.518Z,8.79
2022-11-05T01:28:04.481Z,8.73
2022-11-05T01:29:04.510Z,8.63
2022-11-05T01:30:04.442Z,8.63
2022-11-05T01:31:04.416Z,8.63
2022-11-05T01:32:04.434Z,8.67
2022-11-05T01:33:04.382Z,8.64
2022-11-05T01:34:04.366Z,8.61
2022-11-05T01:35:04.348Z,8.66
2022-11-05T01:36:04.334Z,8.61
2022-11-05T01:37:04.343Z,8.58
2022-11-05T01:38:04.329Z,8.56
2022-11-05T01:39:04.287Z,8.55
2022-11-05T01:40:04.273Z,8.56
2022-11-05T01:41:04.266Z,8.49
2022-11-05T01:42:04.253Z,8.53
2022-11-05T01:43:04.243Z,8.52
2022-11-05T01:44:04.200Z,8.56
2022-11-05T01:45:04.179Z,8.56
2022-11-05T01:46:04.198Z,8.52
2022-11-05T01:47:04.169Z,8.49
2022-11-05T01:48:04.140Z,8.49
2022-11-05T01:49:04.112Z,8.53
2022-11-05T01:50:04.092Z,8.48
2022-11-05T01:51:04.100Z,8.58
2022-11-05T01:52:04.094Z,8.46
2022-11-05T01:53:04.048Z,8.56
2022-11-05T01:54:04.030Z,8.51
2022-11-05T01:55:04.002Z,8.55
2022-11-05T01:56:03.992Z,8.63
2022-11-05T01:57:04.030Z,8.60
2022-11-05T01:58:03.953Z,8.61
2022-11-05T01:59:03.943Z,8.56
2022-11-05T02:00:03.922Z,8.49
2022-11-05T02:01:03.902Z,8.63
2022-11-05T02:02:04.028Z,8.61
2022-11-05T02:03:03.905Z,8.66
2022-11-05T02:04:03.849Z,8.60
2022-11-05T02:05:03.835Z,8.67
2022-11-05T02:06:03.861Z,8.67
2022-11-05T02:07:03.822Z,8.71
2022-11-05T02:08:03.774Z,8.73
2022-11-05T02:09:03.768Z,8.79
2022-11-05T02:10:03.749Z,8.70
2022-11-05T02:11:03.728Z,8.91
2022-11-05T02:12:03.739Z,8.84
2022-11-05T02:13:03.734Z,8.84
2022-11-05T02:14:03.700Z,8.67
2022-11-05T02:15:03.663Z,8.66
2022-11-05T02:16:03.635Z,8.84
2022-11-05T02:17:03.665Z,8.82
2022-11-05T02:18:03.618Z,8.84
2022-11-05T02:19:03.591Z,8.89
2022-11-05T02:20:03.576Z,8.84
2022-11-05T02:21:03.548Z,8.81
2022-11-05T02:22:03.562Z,8.89
2022-11-05T02:23:03.513Z,8.84
2022-11-05T02:24:03.508Z,8.95
2022-11-05T02:25:03.484Z,8.92
2022-11-05T02:26:03.478Z,8.94
2022-11-05T02:27:03.491Z,8.97
2022-11-05T02:28:03.439Z,8.94
2022-11-05T02:29:03.429Z,8.91
2022-11-05T02:30:03.398Z,8.99
2022-11-05T02:31:03.370Z,8.92
2022-11-05T02:32:03.382Z,8.94
2022-11-05T02:33:03.341Z,8.99
2022-11-05T02:34:03.325Z,9.03
2022-11-05T02:35:03.309Z,8.92
2022-11-05T02:36:03.323Z,9.00
2022-11-05T02:37:03.308Z,8.99
2022-11-05T02:38:03.278Z,9.02
2022-11-05T02:39:03.234Z,8.97
2022-11-05T02:40:03.223Z,8.99
2022-11-05T02:41:03.200Z,8.94
2022-11-05T02:42:05.181Z,8.89
2022-11-05T02:43:04.166Z,8.82
2022-11-05T02:44:03.148Z,8.91
2022-11-05T02:45:03.138Z,8.85
2022-11-05T02:46:03.117Z,8.87
2022-11-05T02:47:03.193Z,8.74
2022-11-05T02:48:03.085Z,8.85
2022-11-05T02:49:03.073Z,8.79
2022-11-05T02:50:03.040Z,8.85
2022-11-05T02:51:03.031Z,8.84
2022-11-05T02:52:03.036Z,8.82
2022-11-05T02:53:02.997Z,8.73
2022-11-05T02:54:02.980Z,8.69
2022-11-05T02:55:03.964Z,8.70
2022-11-05T02:56:02.949Z,8.71
2022-11-05T02:57:02.957Z,8.60
2022-11-05T02:58:02.917Z,8.58
2022-11-05T02:59:02.894Z,8.66
2022-11-05T03:00:02.886Z,8.56
2022-11-05T03:01:02.861Z,8.49
2022-11-05T03:02:02.935Z,8.60
2022-11-05T03:03:02.875Z,8.48
2022-11-05T03:04:03.824Z,8.67
2022-11-05T03:05:02.808Z,8.60
2022-11-05T03:06:02.778Z,8.64
2022-11-05T03:07:02.783Z,8.56
2022-11-05T03:08:02.736Z,8.63
2022-11-05T03:09:02.721Z,8.51
2022-11-05T03:10:02.702Z,8.52
2022-11-05T03:11:02.686Z,8.53
2022-11-05T03:12:02.715Z,8.61
2022-11-05T03:13:03.650Z,8.60
2022-11-05T03:14:02.644Z,8.49
2022-11-05T03:15:02.616Z,8.53
2022-11-05T03:16:02.603Z,8.48
2022-11-05T03:17:02.615Z,8.45
2022-11-05T03:18:02.563Z,8.44
2022-11-05T03:19:02.638Z,8.34
2022-11-05T03:20:02.529Z,8.34
2022-11-05T03:21:02.513Z,8.41
2022-11-05T03:22:02.529Z,8.31
2022-11-05T03:23:02.471Z,8.31
2022-11-05T03:24:02.452Z,8.28
2022-11-05T03:25:02.449Z,8.28
2022-11-05T03:26:02.415Z,8.26
2022-11-05T03:27:02.437Z,8.19
2022-11-05T03:28:02.384Z,8.13
2022-11-05T03:29:02.368Z,8.18
2022-11-05T03:30:02.346Z,8.20
2022-11-05T03:31:02.336Z,8.26
2022-11-05T03:32:02.344Z,8.13
2022-11-05T03:33:02.293Z,8.13
2022-11-05T03:34:02.277Z,8.12
2022-11-05T03:35:02.255Z,8.08
2022-11-05T03:36:02.251Z,8.12
2022-11-05T03:37:02.277Z,8.13
2022-11-05T03:38:02.217Z,8.06
2022-11-05T03:39:02.187Z,8.09
2022-11-05T03:40:02.197Z,8.09
2022-11-05T03:41:02.152Z,8.13
2022-11-05T03:42:02.175Z,8.15
2022-11-05T03:43:02.117Z,8.00
2022-11-05T03:44:02.118Z,7.95
2022-11-05T03:45:02.083Z,8.00
2022-11-05T03:46:02.095Z,7.97
2022-11-05T03:47:02.077Z,8.16
2022-11-05T03:48:02.038Z,8.06
2022-11-05T03:49:02.052Z,8.10
2022-11-05T03:50:02.007Z,8.08
2022-11-05T03:53:00.386Z,8.15
2022-11-05T03:54:01.873Z,8.23
2022-11-05T03:54:56.309Z,8.08
2022-11-05T03:55:56.294Z,8.12
2022-11-05T03:56:56.274Z,8.16
2022-11-05T03:57:56.290Z,8.15
2022-11-05T03:58:59.188Z,8.15
2022-11-05T03:59:57.226Z,8.13
2022-11-05T04:00:56.198Z,8.19
2022-11-05T04:01:56.295Z,8.19
2022-11-05T04:02:56.204Z,8.24
2022-11-05T04:03:56.145Z,8.20
2022-11-05T04:04:56.139Z,8.15
2022-11-05T04:05:56.113Z,8.16
2022-11-05T04:06:56.094Z,8.16
2022-11-05T04:07:56.101Z,8.15
2022-11-05T04:08:56.059Z,8.26
2022-11-05T04:09:56.042Z,8.20
2022-11-05T04:10:56.018Z,8.24
2022-11-05T04:11:56.002Z,8.23
2022-11-05T04:12:56.008Z,8.18
2022-11-05T04:13:55.968Z,8.31
2022-11-05T04:14:55.955Z,8.24
2022-11-05T04:15:55.934Z,8.26
2022-11-05T04:16:55.923Z,8.37
2022-11-05T04:17:55.950Z,8.27
2022-11-05T04:18:55.881Z,8.23
2022-11-05T04:19:55.876Z,8.24
2022-11-05T04:20:55.849Z,8.26
2022-11-05T04:21:55.834Z,8.30
2022-11-05T04:22:56.514Z,8.16
2022-11-05T04:23:55.826Z,8.26
2022-11-05T04:24:55.782Z,8.23
2022-11-05T04:25:55.760Z,8.24
2022-11-05T04:26:55.741Z,8.20
2022-11-05T04:27:55.764Z,8.19
2022-11-05T04:28:55.711Z,8.12
2022-11-05T04:29:55.695Z,8.12
2022-11-05T04:30:55.673Z,8.18
2022-11-05T04:31:55.668Z,8.06
2022-11-05T04:32:55.667Z,8.05
2022-11-05T04:33:55.627Z,8.08
2022-11-05T04:34:55.609Z,8.00
2022-11-05T04:35:55.601Z,8.00
2022-11-05T04:36:55.578Z,7.95
2022-11-05T04:37:55.587Z,8.05
2022-11-05T04:38:55.540Z,7.93
2022-11-05T04:39:55.523Z,8.01
2022-11-05T04:40:55.504Z,8.06
2022-11-05T04:41:55.499Z,8.03
2022-11-05T04:42:55.492Z,8.05
2022-11-05T04:43:55.503Z,7.98
2022-11-05T04:44:55.436Z,8.03
2022-11-05T04:45:55.433Z,7.97
2022-11-05T04:46:55.442Z,7.97
2022-11-05T04:47:55.408Z,8.00
2022-11-05T04:48:55.402Z,7.94
2022-11-05T04:49:55.355Z,7.95
2022-11-05T04:50:55.349Z,7.97
2022-11-05T04:51:55.325Z,7.97
2022-11-05T04:52:55.350Z,7.94
2022-11-05T04:53:55.293Z,7.95
2022-11-05T04:54:55.291Z,7.83
2022-11-05T04:55:55.261Z,7.76
2022-11-05T04:56:55.271Z,7.76
2022-11-05T04:57:55.245Z,7.67
2022-11-05T04:58:55.227Z,7.53
2022-11-05T04:59:55.186Z,7.57
2022-11-05T05:00:55.232Z,7.61
2022-11-05T05:01:55.173Z,7.47
2022-11-05T05:02:56.164Z,7.43
2022-11-05T05:03:55.146Z,7.36
2022-11-05T05:04:55.106Z,7.33
2022-11-05T05:05:59.434Z,7.29
2022-11-05T05:06:56.079Z,7.20
2022-11-05T05:07:55.073Z,7.32
2022-11-05T05:08:55.024Z,7.23
2022-11-05T05:09:55.011Z,7.23
2022-11-05T05:10:55.005Z,7.11
2022-11-05T05:11:54.972Z,7.06
2022-11-05T05:12:54.988Z,7.06
2022-11-05T05:13:54.954Z,6.95
2022-11-05T05:14:54.922Z,6.88
2022-11-05T05:15:54.904Z,6.93
2022-11-05T05:16:54.890Z,6.93
2022-11-05T05:17:54.905Z,6.93
2022-11-05T05:18:54.852Z,6.96
2022-11-05T05:19:54.854Z,6.89
2022-11-05T05:20:54.829Z,6.87
2022-11-05T05:21:54.823Z,6.87
2022-11-05T05:22:54.842Z,6.79
2022-11-05T05:23:54.768Z,6.84
2022-11-05T05:24:54.789Z,6.85
2022-11-05T05:25:54.731Z,6.82
2022-11-05T05:26:54.719Z,6.81
2022-11-05T05:27:54.792Z,6.81
2022-11-05T05:28:54.679Z,6.78
2022-11-05T05:29:54.683Z,6.74
2022-11-05T05:30:58.610Z,6.78
2022-11-05T05:31:55.646Z,6.72
2022-11-05T05:32:54.634Z,6.82
2022-11-05T05:33:54.589Z,6.84
2022-11-05T05:34:54.573Z,6.81
2022-11-05T05:35:54.548Z,6.75
2022-11-05T05:36:54.581Z,6.74
2022-11-05T05:37:54.518Z,6.75
2022-11-05T05:38:54.526Z,6.79
2022-11-05T05:39:54.481Z,6.72
2022-11-05T05:40:54.456Z,6.78
2022-11-05T05:41:54.446Z,6.67
2022-11-05T05:42:54.423Z,6.77
2022-11-05T05:43:54.437Z,6.77
2022-11-05T05:44:54.452Z,6.70
2022-11-05T05:45:54.386Z,6.67
2022-11-05T05:46:54.385Z,6.70
2022-11-05T05:47:54.348Z,6.70
2022-11-05T05:48:54.315Z,6.72
2022-11-05T05:49:54.318Z,6.60
2022-11-05T05:50:54.282Z,6.59
2022-11-05T05:51:54.309Z,6.51
2022-11-05T05:52:54.244Z,6.49
2022-11-05T05:53:54.238Z,6.51
2022-11-05T05:54:54.213Z,6.59
2022-11-05T05:55:54.189Z,6.49
2022-11-05T05:56:54.200Z,6.60
2022-11-05T05:57:54.158Z,6.60
2022-11-05T05:58:54.147Z,6.57
2022-11-05T05:59:54.123Z,6.59
2022-11-05T06:00:54.104Z,6.59
2022-11-05T06:01:54.217Z,6.56
2022-11-05T06:02:54.099Z,6.60
2022-11-05T06:03:54.038Z,6.59
2022-11-05T06:04:54.027Z,6.64
2022-11-05T06:05:54.024Z,6.60
2022-11-05T06:06:54.025Z,6.60
2022-11-05T06:07:53.977Z,6.64
2022-11-05T06:08:53.946Z,6.51
2022-11-05T06:09:53.944Z,6.60
2022-11-05T06:10:53.970Z,6.62
2022-11-05T06:11:53.926Z,6.52
2022-11-05T06:12:53.879Z,6.49
2022-11-05T06:13:53.863Z,6.60
2022-11-05T06:14:53.845Z,6.56
2022-11-05T06:15:53.822Z,6.54
2022-11-05T06:16:53.907Z,6.66
2022-11-05T06:17:53.792Z,6.63
2022-11-05T06:18:53.767Z,6.67
2022-11-05T06:19:53.754Z,6.79
2022-11-05T06:20:53.734Z,6.67
2022-11-05T06:21:53.741Z,6.60
2022-11-05T06:22:53.694Z,6.67
2022-11-05T06:23:53.669Z,6.70
2022-11-05T06:24:53.666Z,6.74
2022-11-05T06:25:53.653Z,6.69
2022-11-05T06:26:53.645Z,6.74
2022-11-05T06:27:53.670Z,6.74
2022-11-05T06:28:53.582Z,6.67
2022-11-05T06:29:53.583Z,6.67
2022-11-05T06:30:53.554Z,6.64
2022-11-05T06:31:53.565Z,6.70
2022-11-05T06:32:53.514Z,6.72
2022-11-05T06:33:53.503Z,6.67
2022-11-05T06:34:53.471Z,6.70
2022-11-05T06:35:53.441Z,6.62
2022-11-05T06:36:54.466Z,6.60
2022-11-05T06:37:53.420Z,6.67
2022-11-05T06:38:53.393Z,6.60
2022-11-05T06:39:53.380Z,6.62
2022-11-05T06:40:53.358Z,6.62
2022-11-05T06:42:55.330Z,6.69
2022-11-05T06:43:53.310Z,6.72
2022-11-05T06:44:53.293Z,6.74
2022-11-05T06:45:53.277Z,6.92
2022-11-05T06:46:53.284Z,6.88
2022-11-05T06:47:53.233Z,6.89
2022-11-05T06:48:53.238Z,6.95
2022-11-05T06:49:53.199Z,6.93
2022-11-05T06:50:53.182Z,6.97
2022-11-05T06:51:53.210Z,7.02
2022-11-05T06:52:53.178Z,7.05
2022-11-05T06:53:53.129Z,7.02
2022-11-05T06:54:53.106Z,7.10
2022-11-05T06:55:53.089Z,7.14
2022-11-05T06:56:53.071Z,7.06
2022-11-05T06:57:53.080Z,7.14
2022-11-05T06:58:53.037Z,7.23
2022-11-05T06:59:58.578Z,7.28
2022-11-05T07:00:55.048Z,7.24
2022-11-05T07:01:53.048Z,7.24
2022-11-05T07:02:52.990Z,7.25
2022-11-05T07:03:52.954Z,7.40
2022-11-05T07:04:52.929Z,7.38
2022-11-05T07:05:52.914Z,7.42
2022-11-05T07:06:52.888Z,7.39
2022-11-05T07:07:52.904Z,7.45
2022-11-05T07:08:52.856Z,7.31
2022-11-05T07:09:52.835Z,7.47
2022-11-05T07:10:52.824Z,7.47
2022-11-05T07:11:52.799Z,7.56
2022-11-05T07:12:52.809Z,7.76
2022-11-05T07:13:52.765Z,8.20
2022-11-05T07:14:52.755Z,8.44
2022-11-05T07:15:52.748Z,8.87
2022-11-05T07:16:52.729Z,9.11
2022-11-05T07:17:52.730Z,9.08
2022-11-05T07:18:52.683Z,9.06
2022-11-05T07:19:52.667Z,9.19
2022-11-05T07:20:52.644Z,9.23
2022-11-05T07:21:52.624Z,8.95
2022-11-05T07:22:52.634Z,9.06
2022-11-05T07:23:52.627Z,9.04
2022-11-05T07:24:52.567Z,9.66
2022-11-05T07:25:52.559Z,9.94
2022-11-05T07:26:52.538Z,10.25
2022-11-05T07:27:52.545Z,10.15
2022-11-05T07:28:52.525Z,10.67
2022-11-05T07:29:52.479Z,11.08
2022-11-05T07:30:52.467Z,11.59
2022-11-05T07:31:52.459Z,12.13
2022-11-05T07:32:52.456Z,12.42
2022-11-05T07:33:52.403Z,12.57
2022-11-05T07:34:52.382Z,12.85
2022-11-05T07:35:52.386Z,12.90
2022-11-05T07:36:52.371Z,13.05
2022-11-05T07:37:52.321Z,13.22
2022-11-05T07:38:54.917Z,13.75
2022-11-05T07:39:54.276Z,13.85
2022-11-05T07:40:52.249Z,14.00
2022-11-05T07:41:52.255Z,14.29
2022-11-05T07:42:52.201Z,14.81
2022-11-05T07:43:52.252Z,15.09
2022-11-05T07:44:52.167Z,14.72
2022-11-05T07:45:52.136Z,14.70
2022-11-05T07:46:52.120Z,14.89
2022-11-05T07:47:52.108Z,15.18
2022-11-05T07:48:52.100Z,15.58
2022-11-05T07:49:52.055Z,15.92
2022-11-05T07:50:52.040Z,15.76
2022-11-05T07:51:52.024Z,15.77
2022-11-05T07:52:52.028Z,15.67
2022-11-05T07:53:51.977Z,15.77
2022-11-05T07:54:51.960Z,15.88
2022-11-05T07:55:51.969Z,16.20
2022-11-05T07:56:51.919Z,16.20
2022-11-05T07:57:51.926Z,16.17
2022-11-05T07:58:51.881Z,16.36
2022-11-05T07:59:52.864Z,16.56
2022-11-05T08:00:51.963Z,16.78
2022-11-05T08:01:51.966Z,17.08
2022-11-05T08:02:51.995Z,17.27
2022-11-05T08:03:51.792Z,17.54
2022-11-05T08:04:51.778Z,17.65
2022-11-05T08:05:51.753Z,17.51
2022-11-05T08:06:51.739Z,17.42
2022-11-05T08:07:51.744Z,17.76
2022-11-05T08:08:51.705Z,17.74
2022-11-05T08:09:51.685Z,17.83
2022-11-05T08:10:51.660Z,17.85
2022-11-05T08:11:53.121Z,17.78
2022-11-05T08:12:52.649Z,17.48
2022-11-05T08:13:51.613Z,17.49
2022-11-05T08:14:51.586Z,17.54
2022-11-05T08:15:51.568Z,17.78
2022-11-05T08:16:51.605Z,17.86
2022-11-05T08:17:51.563Z,17.92
2022-11-05T08:18:51.512Z,17.92
2022-11-05T08:19:51.511Z,17.97
2022-11-05T08:20:51.478Z,18.07
2022-11-05T08:21:51.460Z,17.95
2022-11-05T08:22:51.462Z,18.10
2022-11-05T08:23:51.427Z,18.04
2022-11-05T08:24:51.496Z,18.13
2022-11-05T08:25:51.381Z,18.26
2022-11-05T08:26:51.377Z,18.28
2022-11-05T08:27:51.371Z,18.52
2022-11-05T08:28:51.324Z,18.60
2022-11-05T08:29:51.304Z,18.43
2022-11-05T08:30:51.293Z,18.41
2022-11-05T08:31:51.272Z,18.41
2022-11-05T08:32:51.276Z,18.53
2022-11-05T08:33:51.234Z,18.92
2022-11-05T08:34:51.220Z,19.02
2022-11-05T08:35:51.220Z,19.02
2022-11-05T08:36:51.204Z,19.30
2022-11-05T08:37:51.178Z,19.27
2022-11-05T08:38:51.256Z,19.39
2022-11-05T08:39:51.176Z,19.44
2022-11-05T08:40:51.102Z,19.59
2022-11-05T08:41:51.083Z,19.73
2022-11-05T08:42:51.099Z,19.58
2022-11-05T08:43:51.080Z,19.14
2022-11-05T08:44:51.025Z,19.24
2022-11-05T08:45:51.005Z,19.24
2022-11-05T08:46:50.993Z,18.81
2022-11-05T08:47:50.996Z,18.56
2022-11-05T08:48:50.952Z,18.41
2022-11-05T08:49:50.930Z,18.53
2022-11-05T08:50:50.928Z,18.58
2022-11-05T08:51:50.893Z,18.18
2022-11-05T08:52:50.919Z,18.26
2022-11-05T08:53:50.862Z,18.56
2022-11-05T08:54:50.862Z,18.86
2022-11-05T08:55:50.846Z,19.02
2022-11-05T08:56:50.807Z,19.21
2022-11-05T08:57:50.840Z,19.21
2022-11-05T08:58:50.777Z,18.99
2022-11-05T08:59:50.755Z,18.77
2022-11-05T09:00:50.801Z,18.68
2022-11-05T09:01:50.830Z,18.59
2022-11-05T09:02:50.729Z,18.22
2022-11-05T09:03:50.687Z,18.03
2022-11-05T09:04:50.673Z,17.68
2022-11-05T09:05:50.647Z,17.49
2022-11-05T09:06:50.640Z,17.46
2022-11-05T09:07:50.642Z,17.51
2022-11-05T09:08:50.596Z,17.52
2022-11-05T09:09:50.581Z,17.45
2022-11-05T09:10:50.556Z,17.46
2022-11-05T09:12:11.303Z,17.54
2022-11-05T09:12:52.550Z,17.70
2022-11-05T09:13:50.519Z,17.98
2022-11-05T09:14:50.483Z,18.18
2022-11-05T09:15:50.466Z,18.22
2022-11-05T09:16:50.463Z,18.15
2022-11-05T09:17:50.456Z,17.86
2022-11-05T09:18:50.446Z,17.54
2022-11-05T09:19:50.412Z,17.34
2022-11-05T09:20:50.376Z,17.20
2022-11-05T09:21:50.368Z,16.93
2022-11-05T09:22:50.374Z,16.81
2022-11-05T09:23:50.342Z,16.68
2022-11-05T09:24:50.319Z,16.43
2022-11-05T09:25:50.292Z,16.02
2022-11-05T09:26:50.279Z,16.46
2022-11-05T09:27:50.281Z,16.78
2022-11-05T09:28:50.299Z,16.93
2022-11-05T09:29:50.232Z,17.24
2022-11-05T09:30:50.208Z,17.19
2022-11-05T09:31:50.226Z,16.69
2022-11-05T09:32:50.190Z,16.65
2022-11-05T09:33:50.179Z,16.94
2022-11-05T09:34:50.133Z,17.11
2022-11-05T09:35:50.110Z,16.86
2022-11-05T09:36:50.110Z,16.74
2022-11-05T09:37:50.099Z,16.94
2022-11-05T09:38:50.091Z,16.54
2022-11-05T09:39:50.051Z,16.42
2022-11-05T09:40:50.031Z,16.35
2022-11-05T09:41:50.000Z,15.98
2022-11-05T09:42:50.058Z,15.91
2022-11-05T09:43:49.986Z,15.79
2022-11-05T09:44:49.943Z,16.09
2022-11-05T09:45:49.941Z,16.42
2022-11-05T09:46:49.932Z,16.43
2022-11-05T09:47:49.909Z,16.46
2022-11-05T09:48:49.885Z,16.21
2022-11-05T09:49:49.859Z,16.29
2022-11-05T09:50:49.844Z,15.83
2022-11-05T09:51:49.819Z,15.79
2022-11-05T09:52:49.856Z,15.75
2022-11-05T09:53:49.774Z,16.02
2022-11-05T09:54:49.770Z,15.88
2022-11-05T09:55:49.752Z,15.80
2022-11-05T09:56:49.732Z,15.68
2022-11-05T09:57:49.734Z,15.54
2022-11-05T09:58:49.725Z,15.82
2022-11-05T09:59:49.669Z,15.52
2022-11-05T10:00:49.718Z,15.52
2022-11-05T10:01:49.750Z,15.15
2022-11-05T10:02:49.619Z,15.73
2022-11-05T10:03:49.619Z,15.54
2022-11-05T10:04:49.617Z,15.46
2022-11-05T10:05:49.634Z,15.39
2022-11-05T10:06:49.541Z,15.17
2022-11-05T10:07:49.554Z,15.35
2022-11-05T10:08:49.501Z,15.54
2022-11-05T10:09:49.481Z,15.25
2022-11-05T10:10:49.461Z,14.91
2022-11-05T10:11:49.454Z,14.81
2022-11-05T10:12:49.452Z,14.96
2022-11-05T10:13:49.409Z,14.81
2022-11-05T10:14:49.392Z,14.54
2022-11-05T10:15:49.369Z,14.28
2022-11-05T10:16:49.349Z,13.95
2022-11-05T10:17:49.358Z,13.96
2022-11-05T10:18:49.345Z,13.39
2022-11-05T10:19:49.293Z,13.30
2022-11-05T10:20:49.275Z,13.62
2022-11-05T10:22:06.210Z,13.49
2022-11-05T10:22:51.264Z,13.68
2022-11-05T10:23:49.227Z,13.83
2022-11-05T10:24:49.201Z,13.81
2022-11-05T10:25:49.194Z,13.83
2022-11-05T10:26:49.165Z,13.54
2022-11-05T10:27:49.184Z,13.46
2022-11-05T10:28:49.135Z,13.25
2022-11-05T10:29:49.117Z,13.08
2022-11-05T10:30:49.101Z,13.04
2022-11-05T10:31:49.074Z,13.15
2022-11-05T10:32:49.267Z,13.37
2022-11-05T10:33:49.051Z,13.13
2022-11-05T10:34:49.014Z,13.46
2022-11-05T10:35:49.001Z,13.47
2022-11-05T10:36:48.982Z,13.47
2022-11-05T10:37:48.995Z,13.38
2022-11-05T10:38:48.944Z,13.15
2022-11-05T10:39:48.927Z,13.25
2022-11-05T10:40:48.908Z,13.20
2022-11-05T10:41:48.884Z,13.60
2022-11-05T10:42:48.894Z,13.41
2022-11-05T10:43:48.849Z,13.57
2022-11-05T10:44:48.838Z,13.74
2022-11-05T10:45:48.832Z,13.96
2022-11-05T10:46:48.789Z,14.07
2022-11-05T10:47:48.792Z,13.99
2022-11-05T10:48:48.764Z,14.03
2022-11-05T10:49:48.736Z,14.08
2022-11-05T10:50:48.711Z,14.35
2022-11-05T10:51:48.700Z,14.58
2022-11-05T10:52:49.026Z,14.70
2022-11-05T10:53:48.658Z,14.73
2022-11-05T10:54:48.643Z,14.86
2022-11-05T10:55:48.621Z,14.88
2022-11-05T10:56:48.605Z,14.66
2022-11-05T10:57:48.609Z,14.62
2022-11-05T10:58:48.565Z,14.51
2022-11-05T10:59:48.547Z,14.35
2022-11-05T11:00:48.618Z,14.18
2022-11-05T11:01:48.566Z,13.68
2022-11-05T11:02:48.511Z,13.52
2022-11-05T11:03:48.477Z,13.33
2022-11-05T11:04:48.459Z,12.98
2022-11-05T11:05:48.428Z,12.68
2022-11-05T11:06:48.404Z,12.86
2022-11-05T11:07:48.419Z,12.83
2022-11-05T11:08:48.364Z,12.80
2022-11-05T11:09:48.344Z,12.75
2022-11-05T11:10:48.329Z,12.83
2022-11-05T11:11:48.305Z,12.82
2022-11-05T11:12:48.312Z,12.64
2022-11-05T11:13:48.262Z,12.49
2022-11-05T11:14:48.247Z,12.42
2022-11-05T11:15:48.220Z,12.42
2022-11-05T11:16:48.204Z,12.43
2022-11-05T11:17:48.208Z,12.46
2022-11-05T11:18:48.175Z,12.43
2022-11-05T11:19:48.141Z,12.39
2022-11-05T11:20:48.368Z,12.31
2022-11-05T11:21:48.099Z,12.18
2022-11-05T11:22:48.095Z,12.03
2022-11-05T11:23:48.056Z,11.73
2022-11-05T11:24:48.025Z,11.50
2022-11-05T11:25:48.026Z,11.27
2022-11-05T11:26:47.988Z,11.10
2022-11-05T11:27:47.987Z,10.96
2022-11-05T11:28:47.944Z,10.96
2022-11-05T11:29:49.637Z,10.93
2022-11-05T11:30:48.894Z,11.04
2022-11-05T11:31:47.872Z,11.14
2022-11-05T11:32:47.843Z,11.12
2022-11-05T11:33:48.847Z,11.19
2022-11-05T11:34:47.802Z,11.41
2022-11-05T11:35:47.781Z,11.25
2022-11-05T11:36:47.755Z,11.41
2022-11-05T11:37:47.737Z,11.40
2022-11-05T11:38:47.750Z,11.43
2022-11-05T11:39:47.691Z,11.43
2022-11-05T11:40:47.665Z,11.43
2022-11-05T11:41:47.656Z,11.36
2022-11-05T11:42:47.655Z,11.36
2022-11-05T11:43:47.600Z,11.45
2022-11-05T11:44:47.579Z,11.54
2022-11-05T11:45:47.566Z,11.41
2022-11-05T11:46:47.546Z,11.29
2022-11-05T11:47:47.534Z,11.30
2022-11-05T11:48:47.578Z,11.26
2022-11-05T11:49:47.460Z,11.17
2022-11-05T11:50:47.462Z,11.11
2022-11-05T11:51:50.252Z,10.97
2022-11-05T11:52:48.433Z,11.07
2022-11-05T11:53:47.385Z,11.18
2022-11-05T11:54:47.364Z,11.15
2022-11-05T11:55:47.345Z,11.07
2022-11-05T11:56:47.328Z,11.17
2022-11-05T11:57:47.330Z,11.14
2022-11-05T11:58:47.286Z,11.14
2022-11-05T12:00:07.640Z,11.11
2022-11-05T12:00:49.272Z,11.11
2022-11-05T12:01:47.259Z,11.05
2022-11-05T12:02:47.332Z,10.92
2022-11-05T12:03:47.181Z,10.86
2022-11-05T12:04:47.183Z,10.74
2022-11-05T12:05:47.146Z,10.75
2022-11-05T12:06:47.115Z,10.84
2022-11-05T12:07:47.122Z,10.74
2022-11-05T12:08:52.273Z,10.72
2022-11-05T12:09:49.064Z,10.74
2022-11-05T12:10:47.056Z,10.78
2022-11-05T12:11:47.013Z,10.90
2022-11-05T12:12:47.022Z,10.94
2022-11-05T12:13:46.983Z,11.02
2022-11-05T12:14:46.988Z,10.93
2022-11-05T12:15:46.932Z,10.93
2022-11-05T12:16:46.911Z,10.90
2022-11-05T12:17:46.918Z,10.99
2022-11-05T12:18:46.864Z,10.92
2022-11-05T12:19:46.852Z,10.78
2022-11-05T12:20:48.349Z,10.67
2022-11-05T12:21:53.119Z,10.72
2022-11-05T12:22:48.822Z,10.89
2022-11-05T12:23:46.767Z,10.93
2022-11-05T12:24:46.756Z,11.00
2022-11-05T12:25:46.718Z,11.07
2022-11-05T12:26:47.704Z,11.10
2022-11-05T12:27:46.731Z,11.23
2022-11-05T12:29:16.664Z,11.26
2022-11-05T12:29:48.636Z,11.40
2022-11-05T12:30:46.627Z,11.43
2022-11-05T12:31:46.598Z,11.36
2022-11-05T12:32:46.679Z,11.33
2022-11-05T12:33:46.584Z,11.36
2022-11-05T12:34:46.550Z,11.25
2022-11-05T12:35:48.971Z,11.17
2022-11-05T12:36:48.510Z,11.07
2022-11-05T12:37:46.536Z,11.11
2022-11-05T12:38:46.461Z,11.05
2022-11-05T12:39:46.441Z,11.10
2022-11-05T12:40:46.425Z,11.04
2022-11-05T12:41:46.402Z,11.08
2022-11-05T12:42:46.413Z,11.07
2022-11-05T12:43:46.360Z,11.05
2022-11-05T12:44:46.347Z,11.04
2022-11-05T12:45:46.340Z,11.02
2022-11-05T12:46:46.297Z,10.93
2022-11-05T12:47:46.307Z,11.02
2022-11-05T12:48:46.259Z,11.10
2022-11-05T12:49:46.244Z,10.96
2022-11-05T12:50:46.219Z,10.96
2022-11-05T12:51:46.200Z,11.14
2022-11-05T12:52:46.214Z,11.25
2022-11-05T12:53:46.165Z,11.25
2022-11-05T12:54:46.141Z,11.25
2022-11-05T12:55:48.821Z,11.22
2022-11-05T12:56:46.097Z,11.25
2022-11-05T12:57:46.106Z,11.18
2022-11-05T12:58:46.080Z,11.07
2022-11-05T12:59:46.038Z,11.10
2022-11-05T13:00:46.029Z,10.97
2022-11-05T13:01:46.126Z,11.07
2022-11-05T13:02:45.997Z,11.08
2022-11-05T13:03:45.956Z,10.93
2022-11-05T13:04:45.923Z,10.89
2022-11-05T13:05:46.910Z,10.89
2022-11-05T13:06:45.893Z,10.87
2022-11-05T13:07:45.896Z,10.97
2022-11-05T13:08:45.845Z,11.11
2022-11-05T13:09:45.827Z,11.12